Time;durP1;ratioP1;P1;durP2;ratioP2;P2;SDS_P1;SDS_P2;PMS_P1;PMS_P2;Temp;Humidity;BMP_temperature;BMP_pressure;BME280_temperature;BME280_humidity;BME280_pressure;Samples;Min_cycle;Max_cycle;Signal;HPM_P1;HPM_P2
2021/09/13 00:01:10;;;;;;;1.60;1.50;;;;;;;22.51;88.99;97625.38;5010074;28;20205;-65
2021/09/13 00:03:37;;;;;;;1.47;1.20;;;;;;;22.50;88.97;97621.03;5009590;28;20234;-65
2021/09/13 00:06:04;;;;;;;1.70;1.60;;;;;;;22.51;89.02;97620.25;5009705;28;20708;-65
2021/09/13 00:08:31;;;;;;;1.30;1.30;;;;;;;22.51;88.81;97625.38;5009423;28;20265;-65
2021/09/13 00:10:57;;;;;;;1.50;1.40;;;;;;;22.50;88.75;97616.81;5009837;28;20198;-63
2021/09/13 00:13:24;;;;;;;1.60;1.50;;;;;;;22.50;88.82;97621.94;5008531;28;20605;-64
2021/09/13 00:15:51;;;;;;;1.60;1.50;;;;;;;22.51;88.94;97616.00;5009444;28;20531;-65
2021/09/13 00:18:17;;;;;;;1.60;1.50;;;;;;;22.51;88.83;97630.50;5007880;28;20277;-65
2021/09/13 00:20:44;;;;;;;1.50;1.40;;;;;;;22.51;89.02;97623.69;5008388;28;20297;-65
2021/09/13 00:23:10;;;;;;;1.40;1.30;;;;;;;22.51;88.74;97627.94;5008951;28;20293;-65
2021/09/13 00:25:37;;;;;;;1.60;1.50;;;;;;;22.51;88.87;97625.38;5009471;28;20656;-65
2021/09/13 00:28:04;;;;;;;1.70;1.60;;;;;;;22.51;88.87;97625.38;5007864;28;20230;-65
2021/09/13 00:30:30;;;;;;;1.50;1.40;;;;;;;22.52;88.82;97621.97;5009836;28;20637;-63
2021/09/13 00:32:57;;;;;;;1.60;1.50;;;;;;;22.51;88.72;97626.25;5008975;28;20712;-64
2021/09/13 00:35:25;;;;;;;2.90;1.53;;;;;;;22.50;88.92;97621.94;5006963;28;20293;-66
2021/09/13 00:37:52;;;;;;;1.60;1.50;;;;;;;22.50;88.82;97624.50;5007512;28;20249;-66
2021/09/13 00:40:19;;;;;;;1.70;1.60;;;;;;;22.50;88.80;97624.50;5006638;28;20384;-65
2021/09/13 00:42:45;;;;;;;1.63;1.53;;;;;;;22.50;89.02;97618.50;5008593;28;20233;-65
2021/09/13 00:45:12;;;;;;;1.50;1.40;;;;;;;22.41;89.12;97606.28;5009007;28;20226;-66
2021/09/13 00:47:39;;;;;;;1.50;1.40;;;;;;;22.46;89.07;97617.53;5007481;28;20241;-65
2021/09/13 00:50:06;;;;;;;1.40;1.30;;;;;;;22.50;89.01;97621.94;5007476;28;20282;-65
2021/09/13 00:52:32;;;;;;;1.50;1.40;;;;;;;22.51;89.22;97627.94;5009450;28;20268;-65
2021/09/13 00:54:59;;;;;;;1.20;1.20;;;;;;;22.50;88.93;97628.72;5007998;28;20625;-65
2021/09/13 00:57:29;;;;;;;1.67;1.30;;;;;;;22.50;88.97;97629.59;5008260;28;20226;-65
2021/09/13 00:59:56;;;;;;;1.50;1.40;;;;;;;22.50;88.91;97624.50;5005605;28;20206;-63
2021/09/13 01:02:22;;;;;;;1.50;1.40;;;;;;;22.50;89.00;97624.50;5007969;28;20793;-66
2021/09/13 01:04:49;;;;;;;1.50;1.40;;;;;;;22.50;89.04;97623.63;5007246;28;20241;-64
2021/09/13 01:07:16;;;;;;;1.63;1.53;;;;;;;22.50;88.89;97621.03;5004111;28;20276;-64
2021/09/13 01:09:42;;;;;;;1.67;1.57;;;;;;;22.50;88.90;97623.63;5011533;28;20687;-64
2021/09/13 01:12:09;;;;;;;1.70;1.60;;;;;;;22.51;89.02;97623.69;5008582;28;20221;-64
2021/09/13 01:14:39;;;;;;;1.53;1.43;;;;;;;22.50;88.98;97621.03;5006052;28;20578;-65
2021/09/13 01:17:07;;;;;;;1.60;1.50;;;;;;;22.50;88.90;97623.63;5007873;28;20309;-64
2021/09/13 01:19:34;;;;;;;1.30;1.30;;;;;;;22.50;88.98;97627.06;5008948;28;20328;-63
2021/09/13 01:22:01;;;;;;;1.53;1.43;;;;;;;22.50;89.00;97624.50;5008736;28;20670;-64
2021/09/13 01:24:29;;;;;;;1.80;1.70;;;;;;;22.50;88.78;97621.94;5007227;28;20716;-64
2021/09/13 01:27:05;;;;;;;1.50;1.40;;;;;;;22.50;88.95;97619.38;4990303;28;20254;-65
2021/09/13 01:29:32;;;;;;;1.50;1.40;;;;;;;22.51;88.81;97623.69;5008658;28;20208;-65
2021/09/13 01:31:59;;;;;;;1.80;1.70;;;;;;;22.50;88.85;97624.50;5007242;28;20723;-65
2021/09/13 01:34:25;;;;;;;1.53;1.43;;;;;;;22.49;88.74;97617.59;5007683;28;20198;-65
2021/09/13 01:36:52;;;;;;;1.70;1.60;;;;;;;22.50;88.99;97621.94;5006601;28;20265;-63
2021/09/13 01:39:19;;;;;;;1.50;1.40;;;;;;;22.50;88.98;97624.50;5008211;28;20209;-65
2021/09/13 01:41:45;;;;;;;1.50;1.40;;;;;;;22.50;88.95;97614.25;5008210;28;20735;-64
2021/09/13 01:44:13;;;;;;;1.53;1.43;;;;;;;22.49;89.01;97614.16;5007856;28;20326;-65
2021/09/13 01:46:39;;;;;;;1.60;1.50;;;;;;;22.49;88.89;97604.81;5006572;28;20238;-65
2021/09/13 01:49:07;;;;;;;1.77;1.50;;;;;;;22.45;88.84;97608.13;5007941;28;20577;-65
2021/09/13 01:51:33;;;;;;;1.60;1.50;;;;;;;22.50;88.94;97618.50;5006558;28;20651;-65
2021/09/13 01:54:00;;;;;;;1.70;1.60;;;;;;;22.49;88.97;97611.59;5007955;28;20202;-65
2021/09/13 01:56:27;;;;;;;1.80;1.70;;;;;;;22.49;89.04;97616.72;5007774;28;20304;-65
2021/09/13 01:58:53;;;;;;;1.60;1.50;;;;;;;22.45;89.05;97608.13;5007493;28;20202;-65
2021/09/13 02:01:21;;;;;;;2.07;1.60;;;;;;;22.49;88.88;97612.50;5006572;28;20238;-64
2021/09/13 02:03:48;;;;;;;1.60;1.50;;;;;;;22.50;89.05;97613.38;5008205;28;20289;-65
2021/09/13 02:06:14;;;;;;;1.60;1.50;;;;;;;22.49;89.02;97615.06;5006953;28;20691;-64
2021/09/13 02:08:41;;;;;;;1.73;1.63;;;;;;;22.49;88.93;97615.06;5007470;28;20293;-63
2021/09/13 02:11:08;;;;;;;1.60;1.50;;;;;;;22.50;88.90;97623.63;5003358;28;20687;-65
2021/09/13 02:13:34;;;;;;;1.60;1.50;;;;;;;22.49;88.99;97617.59;5005897;28;20256;-65
2021/09/13 02:16:01;;;;;;;1.23;1.23;;;;;;;22.50;88.99;97616.81;5007327;28;20254;-64
2021/09/13 02:18:27;;;;;;;1.60;1.50;;;;;;;22.50;88.94;97618.50;5006889;28;20624;-62
2021/09/13 02:20:54;;;;;;;1.50;1.40;;;;;;;22.49;88.97;97615.06;5007468;28;20234;-65
2021/09/13 02:23:21;;;;;;;1.60;1.50;;;;;;;22.50;88.85;97615.94;5007343;28;20238;-65
2021/09/13 02:25:47;;;;;;;1.70;1.60;;;;;;;22.50;88.95;97619.38;5007433;28;20261;-64
2021/09/13 02:28:14;;;;;;;2.27;1.63;;;;;;;22.50;88.90;97619.38;5006795;28;20326;-65
2021/09/13 02:30:40;;;;;;;1.83;1.73;;;;;;;22.51;88.91;97622.81;5007274;28;20288;-64
2021/09/13 02:33:07;;;;;;;1.53;1.43;;;;;;;22.51;88.19;97615.13;5001333;28;20289;-65
2021/09/13 02:35:34;;;;;;;1.50;1.40;;;;;;;22.50;88.89;97619.38;5006840;28;20624;-64
2021/09/13 02:38:00;;;;;;;1.50;1.40;;;;;;;22.50;89.06;97608.25;5007291;28;20210;-65
2021/09/13 02:40:27;;;;;;;1.40;1.33;;;;;;;22.50;89.22;97615.94;5007121;28;20232;-65
2021/09/13 02:42:53;;;;;;;1.60;1.50;;;;;;;22.50;88.90;97621.94;5007289;28;20249;-64
2021/09/13 02:45:20;;;;;;;1.67;1.57;;;;;;;22.50;89.03;97619.38;5006396;28;20277;-65
2021/09/13 02:47:46;;;;;;;1.53;1.43;;;;;;;22.49;89.05;97620.16;5006727;28;20293;-65
2021/09/13 02:50:14;;;;;;;1.50;1.40;;;;;;;22.50;88.66;97621.94;5006679;28;20369;-65
2021/09/13 02:52:40;;;;;;;1.50;1.40;;;;;;;22.49;88.97;97615.06;5007033;28;20676;-65
2021/09/13 02:55:07;;;;;;;1.60;1.50;;;;;;;22.49;88.99;97612.50;5000290;28;20648;-65
2021/09/13 02:57:34;;;;;;;1.50;1.40;;;;;;;22.49;89.01;97612.50;5006462;28;20280;-65
2021/09/13 03:00:01;;;;;;;1.50;1.40;;;;;;;22.49;88.93;97611.59;5006975;28;20285;-65
2021/09/13 03:02:27;;;;;;;1.60;1.50;;;;;;;22.49;89.04;97607.38;5006479;28;20234;-66
2021/09/13 03:04:54;;;;;;;1.30;1.20;;;;;;;22.49;88.90;97609.94;5006926;28;20309;-64
2021/09/13 03:07:21;;;;;;;1.40;1.40;;;;;;;22.49;88.84;97607.38;5006368;28;20218;-66
2021/09/13 03:09:47;;;;;;;1.67;1.57;;;;;;;22.50;88.62;97606.56;5006926;28;20292;-65
2021/09/13 03:12:14;;;;;;;1.30;1.30;;;;;;;22.50;88.90;97608.25;5006788;28;20668;-65
2021/09/13 03:14:40;;;;;;;1.60;1.50;;;;;;;22.50;88.88;97608.25;5006572;28;20669;-65
2021/09/13 03:17:07;;;;;;;1.60;1.50;;;;;;;22.50;88.82;97611.69;5001115;28;20270;-65
2021/09/13 03:19:34;;;;;;;1.77;1.67;;;;;;;22.49;88.93;97609.94;5010600;28;20256;-64
2021/09/13 03:22:00;;;;;;;1.53;1.43;;;;;;;22.50;88.39;97608.25;5010780;28;20658;-65
2021/09/13 03:24:27;;;;;;;1.73;1.63;;;;;;;22.49;89.18;97606.47;5010395;28;20248;-65
2021/09/13 03:26:53;;;;;;;1.60;1.50;;;;;;;22.49;88.92;97609.94;5010389;28;20754;-65
2021/09/13 03:29:20;;;;;;;1.67;1.57;;;;;;;22.50;88.60;97610.81;5010403;28;20743;-64
2021/09/13 03:31:46;;;;;;;1.47;1.37;;;;;;;22.50;88.80;97608.25;5010286;28;20213;-65
2021/09/13 03:34:13;;;;;;;1.43;1.33;;;;;;;22.50;88.86;97610.81;5010543;28;20204;-64
2021/09/13 03:36:40;;;;;;;1.77;1.67;;;;;;;22.50;88.82;97621.94;5010228;28;20254;-65
2021/09/13 03:39:06;;;;;;;1.53;1.43;;;;;;;22.50;88.76;97615.94;5010143;28;20317;-64
2021/09/13 03:41:33;;;;;;;1.60;1.50;;;;;;;22.49;88.91;97615.06;5010204;28;20679;-65
2021/09/13 03:44:00;;;;;;;1.50;1.40;;;;;;;22.44;88.95;97608.94;5010297;28;20288;-65
2021/09/13 03:46:26;;;;;;;1.50;1.40;;;;;;;22.49;89.02;97617.59;5008615;28;20634;-65
2021/09/13 03:48:53;;;;;;;1.60;1.50;;;;;;;22.49;89.15;97615.06;5009603;28;20210;-64
2021/09/13 03:51:19;;;;;;;1.53;1.43;;;;;;;22.50;88.66;97615.94;5010152;28;20206;-65
2021/09/13 03:53:46;;;;;;;1.43;1.33;;;;;;;22.48;88.92;97618.44;5010051;28;20238;-65
2021/09/13 03:56:12;;;;;;;1.80;1.70;;;;;;;22.49;88.83;97609.94;5009601;28;20249;-65
2021/09/13 03:58:39;;;;;;;1.70;1.60;;;;;;;22.49;89.01;97614.16;5009664;28;20297;-64
2021/09/13 04:01:05;;;;;;;1.63;1.53;;;;;;;22.49;88.88;97614.16;5010317;28;20234;-65
2021/09/13 04:03:45;;;;;;;1.60;1.50;;;;;;;22.49;88.91;97616.72;5010118;28;20210;-65
2021/09/13 04:11:26;;;;;;;1.60;1.50;;;;;;;22.48;88.85;97610.75;5009928;28;20736;-65
2021/09/13 04:13:53;;;;;;;1.70;1.60;;;;;;;22.48;88.93;97603.06;5009433;28;20246;-65
2021/09/13 04:16:19;;;;;;;1.57;1.47;;;;;;;22.49;88.88;97603.94;5009680;28;20256;-65
2021/09/13 04:18:46;;;;;;;1.57;1.47;;;;;;;22.48;88.86;97605.66;5008735;28;20214;-65
2021/09/13 04:21:13;;;;;;;1.70;1.60;;;;;;;22.48;88.88;97600.53;5009652;28;20518;-65
2021/09/13 04:23:39;;;;;;;1.70;1.60;;;;;;;22.49;88.84;97597.13;5009110;28;20206;-64
2021/09/13 04:26:06;;;;;;;1.70;1.60;;;;;;;22.49;88.80;97596.25;5009823;28;20351;-65
2021/09/13 04:28:33;;;;;;;1.50;1.40;;;;;;;22.50;88.44;97590.31;5008338;28;20297;-65
2021/09/13 04:30:59;;;;;;;1.60;1.50;;;;;;;22.49;88.79;97588.56;5009910;28;20442;-65
2021/09/13 04:33:26;;;;;;;2.20;1.30;;;;;;;22.49;88.71;97584.31;5009400;28;20206;-65
2021/09/13 04:35:54;;;;;;;1.50;1.40;;;;;;;22.49;88.64;97586.00;5009180;28;20774;-65
2021/09/13 04:38:20;;;;;;;1.63;1.53;;;;;;;22.50;88.40;97590.31;5009018;28;20234;-65
2021/09/13 04:40:47;;;;;;;1.60;1.50;;;;;;;22.49;88.84;97584.31;5009160;28;20882;-65
2021/09/13 04:43:13;;;;;;;1.60;1.50;;;;;;;22.50;89.04;97585.19;5009259;28;20236;-65
2021/09/13 04:45:40;;;;;;;1.73;1.63;;;;;;;22.49;88.88;97586.88;5008537;28;20321;-65
2021/09/13 04:48:06;;;;;;;1.60;1.50;;;;;;;22.48;88.75;97595.41;5008860;28;20633;-65
2021/09/13 04:50:33;;;;;;;1.60;1.50;;;;;;;22.48;88.65;97592.84;5008805;28;20202;-65
2021/09/13 04:53:00;;;;;;;1.60;1.50;;;;;;;22.50;88.83;97596.31;5008752;28;20234;-65
2021/09/13 04:55:26;;;;;;;2.13;1.30;;;;;;;22.50;88.90;97595.44;5008743;28;20302;-65
2021/09/13 04:57:53;;;;;;;1.30;1.30;;;;;;;22.49;88.75;97586.88;5007210;28;20650;-66
2021/09/13 05:00:21;;;;;;;1.50;1.40;;;;;;;22.49;88.56;97586.00;5008754;28;20237;-65
2021/09/13 05:02:48;;;;;;;1.50;1.40;;;;;;;22.50;88.66;97586.06;5007242;28;20684;-65
2021/09/13 05:05:15;;;;;;;1.67;1.57;;;;;;;22.50;88.74;97592.88;5008845;28;20229;-65
2021/09/13 05:07:42;;;;;;;1.73;1.50;;;;;;;22.50;88.73;97592.88;5007940;28;20777;-65
2021/09/13 05:10:09;;;;;;;1.57;1.47;;;;;;;22.50;88.68;97600.56;5008820;28;20324;-65
2021/09/13 05:12:35;;;;;;;1.30;1.30;;;;;;;22.51;88.44;97604.88;5008438;28;20238;-65
2021/09/13 05:15:02;;;;;;;1.80;1.70;;;;;;;22.50;88.70;97598.88;5008020;28;20230;-65
2021/09/13 05:17:28;;;;;;;1.70;1.60;;;;;;;22.51;88.72;97597.19;5008064;28;20306;-65
2021/09/13 05:19:55;;;;;;;1.77;1.67;;;;;;;22.51;88.72;97599.75;5006685;28;20222;-65
2021/09/13 05:22:22;;;;;;;1.60;1.50;;;;;;;22.51;88.71;97594.63;5008593;28;20297;-65
2021/09/13 05:24:48;;;;;;;1.63;1.53;;;;;;;22.51;89.25;97598.06;5007952;28;20292;-66
2021/09/13 05:27:15;;;;;;;1.57;1.47;;;;;;;22.51;88.89;97603.19;5008062;28;20698;-65
2021/09/13 05:29:42;;;;;;;1.73;1.63;;;;;;;22.50;88.63;97609.13;5008618;28;20646;-65
2021/09/13 05:32:09;;;;;;;1.60;1.50;;;;;;;22.52;88.52;97615.16;5008259;28;20234;-65
2021/09/13 05:34:35;;;;;;;1.70;1.60;;;;;;;22.51;88.91;97608.31;5008510;28;20818;-65
2021/09/13 05:37:02;;;;;;;1.83;1.73;;;;;;;22.51;88.60;97618.56;5007845;28;20250;-63
2021/09/13 05:39:28;;;;;;;1.40;1.30;;;;;;;22.52;88.79;97619.41;5008445;28;20646;-65
2021/09/13 05:41:55;;;;;;;1.50;1.40;;;;;;;22.52;88.50;97617.72;5007394;28;20301;-65
2021/09/13 05:44:21;;;;;;;1.60;1.50;;;;;;;22.52;88.46;97616.84;5007270;28;20199;-65
2021/09/13 05:46:48;;;;;;;1.50;1.40;;;;;;;22.30;88.61;97583.78;5105928;22;20795;-68
2021/09/13 05:49:15;;;;;;;1.60;1.50;;;;;;;22.51;88.40;97625.38;4976422;28;20266;-68
2021/09/13 05:51:50;;;;;;;1.47;1.37;;;;;;;22.51;88.49;97618.56;4988091;28;20238;-68
2021/09/13 05:54:25;;;;;;;1.60;1.50;;;;;;;22.40;88.63;97596.88;4989172;28;20304;-68
2021/09/13 05:56:53;;;;;;;1.63;1.53;;;;;;;22.30;88.43;97581.22;4979589;28;20249;-68
2021/09/13 05:59:20;;;;;;;1.70;1.60;;;;;;;22.52;88.54;97619.41;4985207;28;20745;-68
2021/09/13 06:01:47;;;;;;;1.60;1.50;;;;;;;22.53;88.46;97621.16;4997878;28;20234;-68
2021/09/13 06:04:14;;;;;;;1.50;1.40;;;;;;;22.52;88.45;97622.84;4988792;28;20229;-69
2021/09/13 06:06:41;;;;;;;1.50;1.40;;;;;;;22.48;88.50;97622.69;4990151;28;20293;-67
2021/09/13 06:09:08;;;;;;;1.57;1.47;;;;;;;22.52;88.46;97632.22;4984649;28;20661;-69
2021/09/13 06:11:35;;;;;;;1.70;1.60;;;;;;;22.51;88.08;97628.81;4996341;28;20241;-68
2021/09/13 06:14:01;;;;;;;1.60;1.50;;;;;;;22.53;88.61;97633.97;4994498;28;20716;-68
2021/09/13 06:16:28;;;;;;;1.40;1.30;;;;;;;22.40;88.20;97612.25;4988944;28;20281;-69
2021/09/13 06:18:55;;;;;;;1.50;1.40;;;;;;;22.41;88.03;97613.13;4981938;28;20202;-68
2021/09/13 06:21:21;;;;;;;1.57;1.47;;;;;;;22.33;88.61;97599.22;4997710;28;20288;-69
2021/09/13 06:23:48;;;;;;;1.50;1.40;;;;;;;22.53;88.45;97631.41;4973981;28;20287;-68
2021/09/13 06:26:15;;;;;;;1.70;1.60;;;;;;;22.44;88.41;97619.16;4998266;28;20221;-68
2021/09/13 06:28:44;;;;;;;1.70;1.60;;;;;;;22.53;88.27;97636.53;4991402;28;20663;-66
2021/09/13 06:31:10;;;;;;;2.10;1.40;;;;;;;22.50;88.40;97634.72;4988511;28;20736;-69
2021/09/13 06:33:37;;;;;;;1.67;1.57;;;;;;;22.53;88.34;97637.38;4989597;28;20210;-68
2021/09/13 06:36:04;;;;;;;1.63;1.53;;;;;;;22.49;88.30;97634.66;4988838;28;20199;-68
2021/09/13 06:38:31;;;;;;;1.60;1.50;;;;;;;22.49;87.99;97643.22;4979896;28;20283;-69
2021/09/13 06:40:59;;;;;;;1.40;1.30;;;;;;;22.45;88.41;97635.41;4995503;28;20582;-68
2021/09/13 06:43:28;;;;;;;1.43;1.33;;;;;;;22.50;88.23;97647.53;4984572;28;20238;-68
2021/09/13 06:46:09;;;;;;;2.57;1.50;;;;;;;22.42;88.38;97630.22;4989826;28;20660;-68
2021/09/13 06:48:36;;;;;;;1.90;1.80;;;;;;;22.53;88.28;97650.19;4973008;28;20688;-68
2021/09/13 06:51:03;;;;;;;1.50;1.40;;;;;;;22.52;88.34;97651.03;4990794;28;20237;-69
2021/09/13 06:53:30;;;;;;;1.57;1.47;;;;;;;22.20;88.44;97595.44;4988236;28;20623;-69
2021/09/13 06:55:56;;;;;;;1.60;1.50;;;;;;;22.53;88.08;97647.63;4984142;28;20735;-68
2021/09/13 06:58:23;;;;;;;1.50;1.40;;;;;;;22.45;88.24;97635.41;4990132;28;20234;-68
2021/09/13 07:00:49;;;;;;;1.63;1.53;;;;;;;22.53;88.27;97651.91;4984380;28;20254;-68
2021/09/13 07:03:16;;;;;;;2.23;1.70;;;;;;;22.53;88.24;97649.34;4990157;28;20285;-68
2021/09/13 07:05:43;;;;;;;1.70;1.60;;;;;;;22.50;88.39;97644.09;4989415;28;20601;-67
2021/09/13 07:08:10;;;;;;;1.57;1.47;;;;;;;22.52;88.31;97651.03;4979502;28;20254;-69
2021/09/13 07:10:36;;;;;;;1.60;1.50;;;;;;;22.20;88.46;97594.59;4992641;28;20214;-68
2021/09/13 07:13:03;;;;;;;1.63;1.53;;;;;;;22.49;88.31;97650.03;4998517;28;20235;-70
2021/09/13 07:15:29;;;;;;;1.43;1.33;;;;;;;22.53;88.12;97660.44;4989418;28;20301;-69
2021/09/13 07:17:58;;;;;;;1.70;1.60;;;;;;;22.52;88.39;97656.16;4990435;28;20327;-68
2021/09/13 07:20:25;;;;;;;1.87;1.70;;;;;;;22.48;88.21;97654.31;4992808;28;20234;-69
2021/09/13 07:22:51;;;;;;;1.63;1.53;;;;;;;22.54;88.33;97669.00;4994844;28;20245;-69
2021/09/13 07:25:18;;;;;;;1.70;1.60;;;;;;;22.47;88.16;97652.53;4994291;28;20285;-69
2021/09/13 07:27:44;;;;;;;1.60;1.50;;;;;;;22.48;88.27;97658.53;4994995;28;20227;-68
2021/09/13 07:30:11;;;;;;;1.50;1.40;;;;;;;22.53;88.19;97668.13;4988106;28;20234;-69
2021/09/13 07:32:38;;;;;;;1.77;1.67;;;;;;;22.53;88.08;97677.50;4990325;28;20242;-69
2021/09/13 07:35:06;;;;;;;1.60;1.50;;;;;;;22.47;88.36;97664.50;4989778;28;20238;-68
2021/09/13 07:37:34;;;;;;;1.70;1.60;;;;;;;22.47;88.12;97661.94;4992483;28;20254;-69
2021/09/13 07:40:01;;;;;;;1.67;1.57;;;;;;;22.27;88.18;97625.53;4983252;28;20269;-69
2021/09/13 07:42:27;;;;;;;1.70;1.60;;;;;;;22.53;88.21;97673.22;4993842;28;20202;-69
2021/09/13 07:44:54;;;;;;;2.87;1.40;;;;;;;22.24;88.29;97620.34;4995522;28;20653;-69
2021/09/13 07:47:21;;;;;;;1.50;1.40;;;;;;;22.51;88.24;97672.34;4987527;28;20262;-68
2021/09/13 07:49:47;;;;;;;1.60;1.50;;;;;;;22.54;88.32;97677.56;4990608;28;20250;-69
2021/09/13 07:52:14;;;;;;;1.70;1.60;;;;;;;22.32;88.27;97646.16;4987943;28;20595;-69
2021/09/13 07:54:42;;;;;;;1.70;1.60;;;;;;;22.49;88.26;97671.41;4993991;28;20265;-69
2021/09/13 07:57:08;;;;;;;1.60;1.50;;;;;;;22.50;88.15;97667.16;4985725;28;20253;-68
2021/09/13 07:59:35;;;;;;;1.60;1.50;;;;;;;22.55;88.47;97683.53;4994565;28;20234;-68
2021/09/13 08:02:01;;;;;;;1.77;1.67;;;;;;;22.46;88.21;97666.19;4993658;28;20234;-69
2021/09/13 08:04:28;;;;;;;1.70;1.60;;;;;;;22.48;88.17;97669.66;4989682;28;20297;-69
2021/09/13 08:06:55;;;;;;;1.90;1.80;;;;;;;22.46;87.96;97665.31;4992275;28;20264;-67
2021/09/13 08:09:22;;;;;;;1.63;1.53;;;;;;;22.54;88.20;97677.56;4991303;28;20290;-68
2021/09/13 08:11:48;;;;;;;1.60;1.50;;;;;;;22.54;88.08;97685.25;4999562;28;20238;-69
2021/09/13 08:14:15;;;;;;;1.70;1.60;;;;;;;22.55;88.09;97686.09;4996527;28;21066;-69
2021/09/13 08:16:41;;;;;;;1.57;1.47;;;;;;;22.55;88.15;97692.09;4992010;28;20701;-69
2021/09/13 08:19:08;;;;;;;1.53;1.43;;;;;;;22.54;88.38;97692.03;4968899;28;20615;-69
2021/09/13 08:21:39;;;;;;;2.00;1.60;;;;;;;22.55;88.08;97693.78;5000222;28;21051;-68
2021/09/13 08:24:07;;;;;;;2.00;1.90;;;;;;;22.54;88.13;97695.47;4992627;28;20243;-69
2021/09/13 08:26:34;;;;;;;1.70;1.60;;;;;;;22.46;88.05;97678.13;5001240;28;20273;-69
2021/09/13 08:29:00;;;;;;;1.70;1.60;;;;;;;22.49;88.14;97684.19;4985312;28;20289;-68
2021/09/13 08:31:27;;;;;;;1.60;1.50;;;;;;;22.55;87.55;97692.09;4981472;28;20242;-67
2021/09/13 08:33:54;;;;;;;1.70;1.60;;;;;;;22.54;87.94;97695.47;5000290;28;20268;-69
2021/09/13 08:36:20;;;;;;;1.60;1.50;;;;;;;22.56;88.12;97705.78;4991308;28;20274;-69
2021/09/13 08:38:47;;;;;;;1.80;1.70;;;;;;;22.55;87.88;97698.91;4984547;28;20257;-68
2021/09/13 08:41:14;;;;;;;1.97;1.67;;;;;;;22.56;88.18;97703.22;4992466;28;20242;-68
2021/09/13 08:43:41;;;;;;;1.70;1.60;;;;;;;22.55;88.11;97706.56;5003581;28;20245;-69
2021/09/13 08:46:11;;;;;;;1.60;1.50;;;;;;;22.47;88.21;97690.97;4999419;28;20674;-68
2021/09/13 08:53:45;;;;;;;1.80;1.70;;;;;;;22.55;88.08;97715.16;4998677;28;20247;-67
2021/09/13 08:56:16;;;;;;;1.90;1.80;;;;;;;22.56;87.66;97716.03;4990492;28;20215;-68
2021/09/13 08:58:44;;;;;;;1.60;1.50;;;;;;;22.55;88.09;97717.69;4990690;28;20664;-69
2021/09/13 09:01:11;;;;;;;1.93;1.60;;;;;;;22.46;88.06;97704.59;4991754;28;20203;-69
2021/09/13 09:03:45;;;;;;;1.67;1.57;;;;;;;22.43;87.87;97701.97;4981544;28;20245;-67
2021/09/13 09:06:40;;;;;;;1.60;1.50;;;;;;;22.55;88.25;97720.25;4993665;28;20326;-68
2021/09/13 09:09:08;;;;;;;1.70;1.60;;;;;;;22.47;88.11;97708.03;4996307;28;20238;-67
2021/09/13 09:11:59;;;;;;;1.63;1.53;;;;;;;22.27;88.01;97670.75;4979745;28;20266;-68
2021/09/13 09:14:33;;;;;;;1.60;1.50;;;;;;;22.47;88.18;97710.59;4985850;28;20245;-68
2021/09/13 09:17:23;;;;;;;1.60;1.50;;;;;;;22.56;88.12;97723.72;4980938;28;20225;-68
2021/09/13 09:20:10;;;;;;;1.60;1.50;;;;;;;22.56;88.15;97718.59;4997681;28;20591;-68
2021/09/13 09:22:40;;;;;;;1.73;1.50;;;;;;;22.55;88.14;97716.81;4984423;28;20257;-68
2021/09/13 09:25:08;;;;;;;1.70;1.60;;;;;;;22.45;88.04;97699.44;5004468;28;20238;-67
2021/09/13 09:28:03;;;;;;;1.50;1.40;;;;;;;22.56;88.05;97713.47;4985938;28;20281;-68
2021/09/13 09:30:32;;;;;;;1.80;1.70;;;;;;;22.56;88.12;97710.91;4992969;28;20589;-68
2021/09/13 09:33:15;;;;;;;1.80;1.70;;;;;;;22.56;88.22;97716.88;4999744;28;20231;-68
2021/09/13 09:35:54;;;;;;;1.77;1.67;;;;;;;22.48;87.88;97689.28;4996478;28;20211;-68
2021/09/13 09:38:27;;;;;;;1.73;1.63;;;;;;;22.56;88.04;97703.22;4980876;28;20207;-68
2021/09/13 09:41:02;;;;;;;2.10;1.63;;;;;;;22.56;88.01;97708.34;4999631;28;20203;-69
2021/09/13 09:43:31;;;;;;;2.00;1.90;;;;;;;22.26;87.96;97651.09;4992790;28;20350;-69
2021/09/13 09:45:58;;;;;;;1.80;1.63;;;;;;;22.55;88.19;97701.47;4990849;28;20454;-69
2021/09/13 09:48:31;;;;;;;1.43;1.33;;;;;;;22.49;88.10;97693.56;4987386;28;20202;-67
2021/09/13 09:50:58;;;;;;;1.60;1.50;;;;;;;22.25;87.94;97649.34;4986373;28;20230;-67
2021/09/13 09:53:29;;;;;;;1.63;1.53;;;;;;;22.53;87.91;97692.88;4989642;28;20202;-68
2021/09/13 09:56:10;;;;;;;1.50;1.40;;;;;;;22.56;88.08;97700.66;4991610;28;20260;-69
2021/09/13 09:58:56;;;;;;;1.80;1.70;;;;;;;22.56;88.06;97698.09;4994090;28;20207;-69
2021/09/13 10:01:48;;;;;;;1.47;1.37;;;;;;;22.44;87.96;97677.22;4989496;28;20203;-68
2021/09/13 10:04:20;;;;;;;1.60;1.50;;;;;;;22.44;88.20;97672.94;4985801;28;20616;-67
2021/09/13 10:06:54;;;;;;;1.73;1.63;;;;;;;22.56;88.11;97683.56;4983758;28;20234;-66
2021/09/13 10:09:21;;;;;;;1.60;1.50;;;;;;;22.24;87.95;97629.69;4999713;28;20277;-67
2021/09/13 10:11:48;;;;;;;1.63;1.53;;;;;;;22.44;87.89;97662.72;4990338;28;20242;-67
2021/09/13 10:14:17;;;;;;;1.67;1.57;;;;;;;22.55;88.02;97681.84;4955430;28;20271;-68
2021/09/13 10:16:44;;;;;;;1.60;1.50;;;;;;;22.48;87.85;97663.66;4973029;28;20254;-69
2021/09/13 10:19:16;;;;;;;1.70;1.60;;;;;;;22.50;87.90;97669.72;4971418;28;20200;-68
2021/09/13 10:21:43;;;;;;;1.70;1.60;;;;;;;22.48;88.00;97658.53;4998575;28;20206;-69
2021/09/13 10:24:14;;;;;;;1.20;1.20;;;;;;;22.56;87.97;97669.91;4979091;28;20271;-69
2021/09/13 10:26:41;;;;;;;1.87;1.70;;;;;;;22.49;88.13;97660.28;4991299;28;20322;-67
2021/09/13 10:29:08;;;;;;;1.60;1.50;;;;;;;22.56;87.97;97670.75;4983418;28;20297;-68
2021/09/13 10:31:45;;;;;;;1.60;1.50;;;;;;;22.57;87.97;97674.19;4990494;28;20286;-68
2021/09/13 10:34:25;;;;;;;1.50;1.40;;;;;;;22.49;87.96;97658.59;4983995;28;20202;-68
2021/09/13 10:37:21;;;;;;;1.50;1.40;;;;;;;22.57;87.66;97669.97;4990469;28;20269;-67
2021/09/13 10:39:51;;;;;;;1.40;1.30;;;;;;;22.48;88.08;97653.44;4990249;28;20307;-68
2021/09/13 10:42:41;;;;;;;1.63;1.53;;;;;;;22.57;88.03;97664.84;4988790;28;20252;-68
2021/09/13 10:45:20;;;;;;;1.43;1.33;;;;;;;22.57;88.02;97672.53;4984212;28;20245;-67
2021/09/13 10:48:00;;;;;;;1.50;1.40;;;;;;;22.57;88.06;97671.63;4990634;28;20270;-68
2021/09/13 10:50:34;;;;;;;1.50;1.40;;;;;;;22.57;88.06;97663.97;4990094;28;20538;-69
2021/09/13 10:53:03;;;;;;;1.63;1.53;;;;;;;22.49;88.06;97653.47;4996319;28;20241;-69
2021/09/13 10:55:30;;;;;;;1.70;1.60;;;;;;;22.57;87.97;97664.84;4983743;28;20248;-68
2021/09/13 10:57:57;;;;;;;1.67;1.57;;;;;;;22.57;88.37;97662.28;4990580;28;20679;-69
2021/09/13 11:00:42;;;;;;;1.60;1.50;;;;;;;22.58;88.02;97658.88;4990360;28;20261;-69
2021/09/13 11:03:33;;;;;;;1.60;1.50;;;;;;;22.58;88.16;97653.75;4999734;28;20206;-70
2021/09/13 11:06:13;;;;;;;1.43;1.33;;;;;;;22.58;87.89;97653.75;4993064;28;20199;-69
2021/09/13 11:08:40;;;;;;;1.60;1.50;;;;;;;22.58;88.02;97652.88;4997212;28;20234;-69
2021/09/13 11:11:14;;;;;;;1.33;1.30;;;;;;;22.35;88.00;97608.69;4985751;28;20234;-69
2021/09/13 11:13:54;;;;;;;1.50;1.40;;;;;;;22.49;87.96;97634.66;4989694;28;20312;-69
2021/09/13 11:16:21;;;;;;;1.40;1.30;;;;;;;22.52;87.95;97639.91;4988312;28;20402;-68
2021/09/13 11:18:47;;;;;;;1.60;1.50;;;;;;;22.58;87.99;97643.50;4982903;28;20737;-69
2021/09/13 11:21:24;;;;;;;1.50;1.40;;;;;;;22.58;87.96;97638.38;4988696;28;20658;-68
2021/09/13 11:23:59;;;;;;;1.70;1.60;;;;;;;22.58;87.91;97635.81;4996307;28;20313;-69
2021/09/13 11:26:44;;;;;;;1.50;1.40;;;;;;;22.58;87.84;97643.50;4992307;28;20314;-69
2021/09/13 11:29:12;;;;;;;1.87;1.40;;;;;;;22.57;87.97;97639.22;4983576;28;20225;-69
2021/09/13 11:31:46;;;;;;;1.50;1.40;;;;;;;22.57;87.79;97633.22;4989221;28;20851;-69
2021/09/13 11:34:13;;;;;;;2.13;1.60;;;;;;;22.58;87.95;97637.50;4984213;28;20391;-69
2021/09/13 11:36:49;;;;;;;1.60;1.50;;;;;;;22.46;88.02;97614.09;4999366;28;20223;-70
2021/09/13 11:39:17;;;;;;;1.60;1.50;;;;;;;22.57;87.95;97628.09;4984334;28;20312;-69
2021/09/13 11:41:58;;;;;;;1.70;1.60;;;;;;;22.56;87.98;97627.22;5004938;28;20285;-69
2021/09/13 11:44:25;;;;;;;1.50;1.40;;;;;;;22.53;88.02;97624.56;4993747;28;20231;-69
2021/09/13 11:46:59;;;;;;;1.57;1.47;;;;;;;22.50;87.98;97613.38;4993763;28;20259;-69
2021/09/13 11:49:36;;;;;;;1.70;1.60;;;;;;;22.51;88.11;97623.69;4986576;28;20577;-72
2021/09/13 11:52:10;;;;;;;1.80;1.37;;;;;;;22.53;88.14;97621.16;4995656;28;20659;-70